sensor_id;sensor_type;location;lat;lon;timestamp;pressure;altitude;pressure_sealevel;temperature;humidity
37078;BME280;22989;55.998;37.212;2024-02-04T00:00:15;41737.00;;;-145.39;59.79
37078;BME280;22989;55.998;37.212;2024-02-04T00:02:40;41737.00;;;-145.39;59.81
37078;BME280;22989;55.998;37.212;2024-02-04T00:05:06;41725.28;;;-145.39;59.83
37078;BME280;22989;55.998;37.212;2024-02-04T00:07:32;41719.44;;;-145.39;59.81
37078;BME280;22989;55.998;37.212;2024-02-04T00:09:57;41729.19;;;-145.39;59.95
37078;BME280;22989;55.998;37.212;2024-02-04T00:12:23;41729.19;;;-145.39;59.83
37078;BME280;22989;55.998;37.212;2024-02-04T00:14:49;41699.91;;;-145.39;59.96
37078;BME280;22989;55.998;37.212;2024-02-04T00:17:16;41729.19;;;-145.39;59.98
37078;BME280;22989;55.998;37.212;2024-02-04T00:19:42;41694.06;;;-145.39;59.78
37078;BME280;22989;55.998;37.212;2024-02-04T00:22:08;41707.72;;;-145.39;59.89
37078;BME280;22989;55.998;37.212;2024-02-04T00:24:33;41696.00;;;-145.39;59.84
37078;BME280;22989;55.998;37.212;2024-02-04T00:26:59;41721.38;;;-145.39;59.96
37078;BME280;22989;55.998;37.212;2024-02-04T00:29:24;41701.84;;;-145.39;59.98
37078;BME280;22989;55.998;37.212;2024-02-04T00:31:50;41717.47;;;-145.39;60.01
37078;BME280;22989;55.998;37.212;2024-02-04T00:34:16;41692.09;;;-145.39;60.05
37078;BME280;22989;55.998;37.212;2024-02-04T00:36:41;41692.09;;;-145.39;60.10
37078;BME280;22989;55.998;37.212;2024-02-04T00:39:07;41733.09;;;-145.39;60.12
37078;BME280;22989;55.998;37.212;2024-02-04T00:41:34;41694.06;;;-145.39;60.15
37078;BME280;22989;55.998;37.212;2024-02-04T00:44:00;41692.09;;;-145.39;60.17
37078;BME280;22989;55.998;37.212;2024-02-04T00:46:26;41672.56;;;-145.39;60.21
37078;BME280;22989;55.998;37.212;2024-02-04T00:48:52;41674.53;;;-145.39;60.26
37078;BME280;22989;55.998;37.212;2024-02-04T00:51:18;41697.97;;;-145.39;60.20
37078;BME280;22989;55.998;37.212;2024-02-04T00:53:45;41678.44;;;-145.39;60.31
37078;BME280;22989;55.998;37.212;2024-02-04T00:56:11;41674.53;;;-145.39;60.44
37078;BME280;22989;55.998;37.212;2024-02-04T00:58:37;41709.66;;;-145.39;60.42
37078;BME280;22989;55.998;37.212;2024-02-04T01:01:03;41686.25;;;-145.39;60.25
37078;BME280;22989;55.998;37.212;2024-02-04T01:03:30;41701.84;;;-145.39;60.36
37078;BME280;22989;55.998;37.212;2024-02-04T01:05:56;41639.38;;;-145.39;60.52
37078;BME280;22989;55.998;37.212;2024-02-04T01:08:22;41649.16;;;-145.39;60.71
37078;BME280;22989;55.998;37.212;2024-02-04T01:10:47;41647.19;;;-145.39;60.71
37078;BME280;22989;55.998;37.212;2024-02-04T01:13:14;41737.00;;;-145.39;60.66
37078;BME280;22989;55.998;37.212;2024-02-04T01:15:39;41705.75;;;-145.39;60.61
37078;BME280;22989;55.998;37.212;2024-02-04T01:18:05;41696.00;;;-145.39;60.73
37078;BME280;22989;55.998;37.212;2024-02-04T01:20:31;41651.09;;;-145.39;60.75
37078;BME280;22989;55.998;37.212;2024-02-04T01:22:56;41658.91;;;-145.39;60.81
37078;BME280;22989;55.998;37.212;2024-02-04T01:25:22;41662.81;;;-145.39;60.81
37078;BME280;22989;55.998;37.212;2024-02-04T01:27:47;41668.66;;;-145.39;60.93
37078;BME280;22989;55.998;37.212;2024-02-04T01:30:13;41690.16;;;-145.39;60.92
37078;BME280;22989;55.998;37.212;2024-02-04T01:32:39;41680.38;;;-145.39;60.83
37078;BME280;22989;55.998;37.212;2024-02-04T01:35:06;41664.78;;;-145.39;60.95
37078;BME280;22989;55.998;37.212;2024-02-04T01:37:31;41688.19;;;-145.39;60.86
37078;BME280;22989;55.998;37.212;2024-02-04T01:39:57;41645.25;;;-145.39;60.86
37078;BME280;22989;55.998;37.212;2024-02-04T01:42:22;41651.09;;;-145.39;60.75
37078;BME280;22989;55.998;37.212;2024-02-04T01:44:49;41674.53;;;-145.39;60.88
37078;BME280;22989;55.998;37.212;2024-02-04T01:47:15;41690.16;;;-145.39;61.08
37078;BME280;22989;55.998;37.212;2024-02-04T01:49:41;41688.19;;;-145.39;61.09
37078;BME280;22989;55.998;37.212;2024-02-04T01:52:07;41682.34;;;-145.39;61.15
37078;BME280;22989;55.998;37.212;2024-02-04T01:54:34;41635.50;;;-145.39;61.13
37078;BME280;22989;55.998;37.212;2024-02-04T01:56:59;41658.91;;;-145.39;61.19
37078;BME280;22989;55.998;37.212;2024-02-04T01:59:29;41631.59;;;-145.39;61.34
37078;BME280;22989;55.998;37.212;2024-02-04T02:02:01;41655.00;;;-145.39;61.33
37078;BME280;22989;55.998;37.212;2024-02-04T02:04:28;41637.44;;;-145.39;61.44
37078;BME280;22989;55.998;37.212;2024-02-04T02:06:54;41647.19;;;-145.39;61.42
37078;BME280;22989;55.998;37.212;2024-02-04T02:09:20;41643.28;;;-145.39;61.49
37078;BME280;22989;55.998;37.212;2024-02-04T02:12:00;41672.56;;;-145.39;61.42
37078;BME280;22989;55.998;37.212;2024-02-04T02:14:32;41623.78;;;-145.39;61.62
37078;BME280;22989;55.998;37.212;2024-02-04T02:17:02;41651.09;;;-145.39;61.53
37078;BME280;22989;55.998;37.212;2024-02-04T02:25:18;41608.16;;;-145.39;61.82
37078;BME280;22989;55.998;37.212;2024-02-04T02:27:48;41596.44;;;-145.39;61.91
37078;BME280;22989;55.998;37.212;2024-02-04T02:30:14;41621.81;;;-145.39;61.93
37078;BME280;22989;55.998;37.212;2024-02-04T02:32:42;41586.69;;;-145.39;61.92
37078;BME280;22989;55.998;37.212;2024-02-04T02:35:08;41586.69;;;-145.39;61.93
37078;BME280;22989;55.998;37.212;2024-02-04T02:37:41;41623.78;;;-145.39;61.96
37078;BME280;22989;55.998;37.212;2024-02-04T02:40:18;41584.72;;;-145.39;62.07
37078;BME280;22989;55.998;37.212;2024-02-04T02:42:47;41588.63;;;-145.39;61.97
37078;BME280;22989;55.998;37.212;2024-02-04T02:45:13;41588.63;;;-145.39;62.10
37078;BME280;22989;55.998;37.212;2024-02-04T02:47:41;41600.34;;;-145.39;62.00
37078;BME280;22989;55.998;37.212;2024-02-04T02:50:07;41571.06;;;-145.39;62.04
37078;BME280;22989;55.998;37.212;2024-02-04T02:52:34;41574.97;;;-145.39;62.20
37078;BME280;22989;55.998;37.212;2024-02-04T02:54:59;41535.94;;;-145.39;62.27
37078;BME280;22989;55.998;37.212;2024-02-04T02:57:25;41586.69;;;-145.39;62.29
37078;BME280;22989;55.998;37.212;2024-02-04T02:59:51;41576.91;;;-145.39;62.26
37078;BME280;22989;55.998;37.212;2024-02-04T03:02:16;41567.16;;;-145.39;62.25
37078;BME280;22989;55.998;37.212;2024-02-04T03:04:42;41578.88;;;-145.39;62.33
37078;BME280;22989;55.998;37.212;2024-02-04T03:07:08;41567.16;;;-145.39;62.27
37078;BME280;22989;55.998;37.212;2024-02-04T03:09:33;41580.81;;;-145.39;62.28
37078;BME280;22989;55.998;37.212;2024-02-04T03:11:59;41561.31;;;-145.39;62.28
37078;BME280;22989;55.998;37.212;2024-02-04T03:14:25;41555.44;;;-145.39;62.19
37078;BME280;22989;55.998;37.212;2024-02-04T03:16:50;41565.22;;;-145.39;62.16
37078;BME280;22989;55.998;37.212;2024-02-04T03:19:16;41569.13;;;-145.39;62.31
37078;BME280;22989;55.998;37.212;2024-02-04T03:21:42;41571.06;;;-145.39;62.37
37078;BME280;22989;55.998;37.212;2024-02-04T03:24:07;41526.16;;;-145.39;62.27
37078;BME280;22989;55.998;37.212;2024-02-04T03:26:33;41555.44;;;-145.39;62.33
37078;BME280;22989;55.998;37.212;2024-02-04T03:28:58;41559.34;;;-145.39;62.52
37078;BME280;22989;55.998;37.212;2024-02-04T03:31:24;41532.03;;;-145.39;62.47
37078;BME280;22989;55.998;37.212;2024-02-04T03:33:51;41532.03;;;-145.39;62.33
37078;BME280;22989;55.998;37.212;2024-02-04T03:36:22;41530.06;;;-145.39;62.50
37078;BME280;22989;55.998;37.212;2024-02-04T03:38:50;41524.22;;;-145.39;62.60
37078;BME280;22989;55.998;37.212;2024-02-04T03:41:15;41537.88;;;-145.39;62.66
37078;BME280;22989;55.998;37.212;2024-02-04T03:43:41;41502.75;;;-145.39;62.57
37078;BME280;22989;55.998;37.212;2024-02-04T03:46:07;41514.44;;;-145.39;62.62
37078;BME280;22989;55.998;37.212;2024-02-04T03:48:33;41514.44;;;-145.39;62.73
37078;BME280;22989;55.998;37.212;2024-02-04T03:50:59;41502.75;;;-145.39;62.84
37078;BME280;22989;55.998;37.212;2024-02-04T03:53:25;41530.06;;;-145.39;62.82
37078;BME280;22989;55.998;37.212;2024-02-04T03:55:51;41494.94;;;-145.39;62.80
37078;BME280;22989;55.998;37.212;2024-02-04T03:58:17;41514.44;;;-145.39;62.81
37078;BME280;22989;55.998;37.212;2024-02-04T04:00:42;41528.13;;;-145.39;62.78
37078;BME280;22989;55.998;37.212;2024-02-04T04:03:08;41510.56;;;-145.39;62.84
37078;BME280;22989;55.998;37.212;2024-02-04T04:05:33;41528.13;;;-145.39;62.89
37078;BME280;22989;55.998;37.212;2024-02-04T04:07:59;41514.44;;;-145.39;62.89
37078;BME280;22989;55.998;37.212;2024-02-04T04:10:24;41487.13;;;-145.39;62.89
37078;BME280;22989;55.998;37.212;2024-02-04T04:12:50;41504.69;;;-145.39;62.95
37078;BME280;22989;55.998;37.212;2024-02-04T04:15:16;41492.97;;;-145.39;62.96
37078;BME280;22989;55.998;37.212;2024-02-04T04:17:42;41483.22;;;-145.39;63.02
37078;BME280;22989;55.998;37.212;2024-02-04T04:20:08;41485.19;;;-145.39;63.06
37078;BME280;22989;55.998;37.212;2024-02-04T04:22:33;41444.19;;;-145.39;63.06
37078;BME280;22989;55.998;37.212;2024-02-04T04:24:59;41491.03;;;-145.39;63.06
37078;BME280;22989;55.998;37.212;2024-02-04T04:27:24;41489.06;;;-145.39;63.14
37078;BME280;22989;55.998;37.212;2024-02-04T04:29:50;41508.59;;;-145.39;63.15
37078;BME280;22989;55.998;37.212;2024-02-04T04:32:16;41491.03;;;-145.39;63.22
37078;BME280;22989;55.998;37.212;2024-02-04T04:34:41;41494.94;;;-145.39;63.22
37078;BME280;22989;55.998;37.212;2024-02-04T04:37:07;41452.00;;;-145.39;63.22
37078;BME280;22989;55.998;37.212;2024-02-04T04:39:32;41477.38;;;-145.39;63.26
37078;BME280;22989;55.998;37.212;2024-02-04T04:41:58;41475.41;;;-145.39;63.32
37078;BME280;22989;55.998;37.212;2024-02-04T04:44:23;41475.41;;;-145.39;63.31
37078;BME280;22989;55.998;37.212;2024-02-04T04:46:49;41473.47;;;-145.39;63.36
37078;BME280;22989;55.998;37.212;2024-02-04T04:49:14;41487.13;;;-145.39;63.35
37078;BME280;22989;55.998;37.212;2024-02-04T04:51:44;41514.44;;;-145.39;63.48
37078;BME280;22989;55.998;37.212;2024-02-04T04:54:10;41452.00;;;-145.39;63.42
37078;BME280;22989;55.998;37.212;2024-02-04T04:56:40;41481.28;;;-145.39;63.52
37078;BME280;22989;55.998;37.212;2024-02-04T04:59:07;41522.25;;;-145.39;63.61
37078;BME280;22989;55.998;37.212;2024-02-04T05:01:32;41573.03;;;-145.39;63.49
37078;BME280;22989;55.998;37.212;2024-02-04T05:03:58;41584.72;;;-145.39;63.43
37078;BME280;22989;55.998;37.212;2024-02-04T05:06:23;41649.16;;;-145.39;63.54
37078;BME280;22989;55.998;37.212;2024-02-04T05:08:49;41713.56;;;-145.39;63.49
37078;BME280;22989;55.998;37.212;2024-02-04T05:11:14;41826.81;;;-145.39;63.51
37078;BME280;22989;55.998;37.212;2024-02-04T05:13:40;41959.56;;;-145.39;63.53
37078;BME280;22989;55.998;37.212;2024-02-04T05:16:06;42111.84;;;-145.39;63.52
37078;BME280;22989;55.998;37.212;2024-02-04T05:18:31;42240.69;;;-145.39;63.64
37078;BME280;22989;55.998;37.212;2024-02-04T05:20:57;42400.81;;;-145.39;63.62
37078;BME280;22989;55.998;37.212;2024-02-04T05:23:22;42631.22;;;-145.39;63.80
37078;BME280;22989;55.998;37.212;2024-02-04T05:25:48;42789.38;;;-145.39;63.66
37078;BME280;22989;55.998;37.212;2024-02-04T05:28:14;42820.63;;;-145.39;63.69
37078;BME280;22989;55.998;37.212;2024-02-04T05:30:39;42924.13;;;-145.39;63.79
37078;BME280;22989;55.998;37.212;2024-02-04T05:33:05;42998.31;;;-145.39;63.80
37078;BME280;22989;55.998;37.212;2024-02-04T05:35:31;43021.75;;;-145.39;63.94
37078;BME280;22989;55.998;37.212;2024-02-04T05:37:57;42998.31;;;-145.39;63.98
37078;BME280;22989;55.998;37.212;2024-02-04T05:40:22;42969.03;;;-145.39;63.95
37078;BME280;22989;55.998;37.212;2024-02-04T05:42:48;42941.69;;;-145.39;64.03
37078;BME280;22989;55.998;37.212;2024-02-04T05:45:13;42894.81;;;-145.39;63.97
37078;BME280;22989;55.998;37.212;2024-02-04T05:47:39;42943.66;;;-145.39;64.02
37078;BME280;22989;55.998;37.212;2024-02-04T05:50:05;43019.81;;;-145.39;64.05
37078;BME280;22989;55.998;37.212;2024-02-04T05:52:31;43142.84;;;-145.39;64.17
37078;BME280;22989;55.998;37.212;2024-02-04T05:54:56;43185.81;;;-145.39;64.19
37078;BME280;22989;55.998;37.212;2024-02-04T05:57:22;43312.75;;;-145.39;64.02
37078;BME280;22989;55.998;37.212;2024-02-04T05:59:49;43328.38;;;-145.39;64.36
37078;BME280;22989;55.998;37.212;2024-02-04T06:02:15;43381.09;;;-145.39;64.47
37078;BME280;22989;55.998;37.212;2024-02-04T06:04:41;43422.09;;;-145.39;64.43
37078;BME280;22989;55.998;37.212;2024-02-04T06:07:06;43404.53;;;-145.39;64.34
37078;BME280;22989;55.998;37.212;2024-02-04T06:09:33;43355.72;;;-145.39;64.61
37078;BME280;22989;55.998;37.212;2024-02-04T06:11:59;43355.72;;;-145.39;64.41
37078;BME280;22989;55.998;37.212;2024-02-04T06:14:24;43316.66;;;-145.39;64.51
37078;BME280;22989;55.998;37.212;2024-02-04T06:16:50;43349.84;;;-145.39;64.57
37078;BME280;22989;55.998;37.212;2024-02-04T06:19:16;43406.50;;;-145.39;64.54
37078;BME280;22989;55.998;37.212;2024-02-04T06:21:41;43511.94;;;-145.39;64.47
37078;BME280;22989;55.998;37.212;2024-02-04T06:24:07;43564.69;;;-145.39;64.49
37078;BME280;22989;55.998;37.212;2024-02-04T06:26:32;43652.56;;;-145.39;64.57
37078;BME280;22989;55.998;37.212;2024-02-04T06:28:58;43633.03;;;-145.39;64.46
37078;BME280;22989;55.998;37.212;2024-02-04T06:31:24;43631.09;;;-145.39;64.41
37078;BME280;22989;55.998;37.212;2024-02-04T06:33:49;43633.03;;;-145.39;64.46
37078;BME280;22989;55.998;37.212;2024-02-04T06:36:15;43609.59;;;-145.39;64.56
37078;BME280;22989;55.998;37.212;2024-02-04T06:38:40;43593.97;;;-145.39;64.48
37078;BME280;22989;55.998;37.212;2024-02-04T06:41:06;43576.41;;;-145.39;64.58
37078;BME280;22989;55.998;37.212;2024-02-04T06:43:32;43564.69;;;-145.39;64.48
37078;BME280;22989;55.998;37.212;2024-02-04T06:45:57;43605.69;;;-145.39;64.43
37078;BME280;22989;55.998;37.212;2024-02-04T06:48:23;43660.38;;;-145.39;64.54
37078;BME280;22989;55.998;37.212;2024-02-04T06:50:49;43629.13;;;-145.39;64.47
37078;BME280;22989;55.998;37.212;2024-02-04T06:53:14;43605.69;;;-145.39;64.62
37078;BME280;22989;55.998;37.212;2024-02-04T06:55:40;43623.28;;;-145.39;64.46
37078;BME280;22989;55.998;37.212;2024-02-04T06:58:05;43605.69;;;-145.39;64.55
37078;BME280;22989;55.998;37.212;2024-02-04T07:00:31;43640.84;;;-145.39;64.64
37078;BME280;22989;55.998;37.212;2024-02-04T07:02:56;43595.94;;;-145.39;64.61
37078;BME280;22989;55.998;37.212;2024-02-04T07:05:22;43595.94;;;-145.39;64.62
37078;BME280;22989;55.998;37.212;2024-02-04T07:07:49;43642.81;;;-145.39;64.63
37078;BME280;22989;55.998;37.212;2024-02-04T07:10:15;43635.00;;;-145.39;64.56
37078;BME280;22989;55.998;37.212;2024-02-04T07:12:42;43717.03;;;-145.39;64.65
37078;BME280;22989;55.998;37.212;2024-02-04T07:15:07;43734.59;;;-145.39;64.60
37078;BME280;22989;55.998;37.212;2024-02-04T07:17:34;43732.66;;;-145.39;64.63
37078;BME280;22989;55.998;37.212;2024-02-04T07:20:01;43765.84;;;-145.39;64.55
37078;BME280;22989;55.998;37.212;2024-02-04T07:22:26;43720.94;;;-145.39;64.64
37078;BME280;22989;55.998;37.212;2024-02-04T07:24:52;43750.22;;;-145.39;64.70
37078;BME280;22989;55.998;37.212;2024-02-04T07:27:17;43703.34;;;-145.39;64.68
37078;BME280;22989;55.998;37.212;2024-02-04T07:29:43;43752.19;;;-145.39;64.56
37078;BME280;22989;55.998;37.212;2024-02-04T07:32:08;43754.13;;;-145.39;64.63
37078;BME280;22989;55.998;37.212;2024-02-04T07:34:34;43752.19;;;-145.39;64.68
37078;BME280;22989;55.998;37.212;2024-02-04T07:37:00;43760.00;;;-145.39;64.70
37078;BME280;22989;55.998;37.212;2024-02-04T07:39:25;43769.75;;;-145.39;64.58
37078;BME280;22989;55.998;37.212;2024-02-04T07:41:51;43789.28;;;-145.39;64.67
37078;BME280;22989;55.998;37.212;2024-02-04T07:44:17;43779.53;;;-145.39;64.71
37078;BME280;22989;55.998;37.212;2024-02-04T07:46:43;43820.56;;;-145.39;64.51
37078;BME280;22989;55.998;37.212;2024-02-04T07:49:08;43842.03;;;-145.39;64.79
37078;BME280;22989;55.998;37.212;2024-02-04T07:51:34;43832.28;;;-145.39;64.79
37078;BME280;22989;55.998;37.212;2024-02-04T07:54:01;43853.75;;;-145.39;64.80
37078;BME280;22989;55.998;37.212;2024-02-04T07:56:26;43867.44;;;-145.39;64.65
37078;BME280;22989;55.998;37.212;2024-02-04T07:58:52;43857.66;;;-145.39;64.87
37078;BME280;22989;55.998;37.212;2024-02-04T08:01:20;43888.91;;;-145.39;64.79
37078;BME280;22989;55.998;37.212;2024-02-04T08:03:45;43810.78;;;-145.39;64.70
37078;BME280;22989;55.998;37.212;2024-02-04T08:06:12;43840.09;;;-145.39;64.82
37078;BME280;22989;55.998;37.212;2024-02-04T08:08:38;43793.22;;;-145.39;64.82
37078;BME280;22989;55.998;37.212;2024-02-04T08:11:04;43810.78;;;-145.39;64.79
37078;BME280;22989;55.998;37.212;2024-02-04T08:13:29;43863.53;;;-145.39;64.74
37078;BME280;22989;55.998;37.212;2024-02-04T08:15:55;43877.19;;;-145.39;64.84
37078;BME280;22989;55.998;37.212;2024-02-04T08:18:20;43896.72;;;-145.39;64.89
37078;BME280;22989;55.998;37.212;2024-02-04T08:20:46;43894.78;;;-145.39;64.86
37078;BME280;22989;55.998;37.212;2024-02-04T08:23:12;43844.00;;;-145.39;64.67
37078;BME280;22989;55.998;37.212;2024-02-04T08:25:37;43785.41;;;-145.39;64.89
37078;BME280;22989;55.998;37.212;2024-02-04T08:28:03;43779.53;;;-145.39;64.89
37078;BME280;22989;55.998;37.212;2024-02-04T08:30:29;43918.22;;;-145.39;64.91
37078;BME280;22989;55.998;37.212;2024-02-04T08:32:55;43840.09;;;-145.39;64.98
37078;BME280;22989;55.998;37.212;2024-02-04T08:35:20;43810.78;;;-145.39;65.06
37078;BME280;22989;55.998;37.212;2024-02-04T08:37:46;43795.16;;;-145.39;65.03
37078;BME280;22989;55.998;37.212;2024-02-04T08:40:11;43717.03;;;-145.39;64.89
37078;BME280;22989;55.998;37.212;2024-02-04T08:42:37;43742.41;;;-145.39;64.97
37078;BME280;22989;55.998;37.212;2024-02-04T08:45:02;43908.44;;;-145.39;64.96
37078;BME280;22989;55.998;37.212;2024-02-04T08:47:28;43963.13;;;-145.39;65.07
37078;BME280;22989;55.998;37.212;2024-02-04T08:49:54;43918.22;;;-145.39;65.04
37078;BME280;22989;55.998;37.212;2024-02-04T08:52:20;43918.22;;;-145.39;65.16
37078;BME280;22989;55.998;37.212;2024-02-04T08:54:46;43881.09;;;-145.39;65.24
37078;BME280;22989;55.998;37.212;2024-02-04T08:57:11;43898.69;;;-145.39;65.09
37078;BME280;22989;55.998;37.212;2024-02-04T08:59:37;43855.72;;;-145.39;65.09
37078;BME280;22989;55.998;37.212;2024-02-04T09:02:02;43830.31;;;-145.39;65.02
37078;BME280;22989;55.998;37.212;2024-02-04T09:04:28;43838.13;;;-145.39;65.04
37078;BME280;22989;55.998;37.212;2024-02-04T09:06:53;43816.66;;;-145.39;65.04
37078;BME280;22989;55.998;37.212;2024-02-04T09:09:19;43849.84;;;-145.39;64.95
37078;BME280;22989;55.998;37.212;2024-02-04T09:11:44;43842.03;;;-145.39;64.89
37078;BME280;22989;55.998;37.212;2024-02-04T09:14:10;43908.44;;;-145.39;64.92
37078;BME280;22989;55.998;37.212;2024-02-04T09:16:37;43947.50;;;-145.39;65.04
37078;BME280;22989;55.998;37.212;2024-02-04T09:19:04;43888.91;;;-145.39;64.88
37078;BME280;22989;55.998;37.212;2024-02-04T09:21:30;43935.78;;;-145.39;64.95
37078;BME280;22989;55.998;37.212;2024-02-04T09:23:55;43814.69;;;-145.39;65.11
37078;BME280;22989;55.998;37.212;2024-02-04T09:26:22;43947.50;;;-145.39;64.92
37078;BME280;22989;55.998;37.212;2024-02-04T09:28:48;43896.72;;;-145.39;64.88
37078;BME280;22989;55.998;37.212;2024-02-04T09:31:13;43769.75;;;-145.39;64.86
37078;BME280;22989;55.998;37.212;2024-02-04T09:33:39;43654.53;;;-145.39;64.79
37078;BME280;22989;55.998;37.212;2024-02-04T09:36:06;43793.22;;;-145.39;64.70
37078;BME280;22989;55.998;37.212;2024-02-04T09:38:31;43859.63;;;-145.39;64.70
37078;BME280;22989;55.998;37.212;2024-02-04T09:40:57;43969.00;;;-145.39;64.61
37078;BME280;22989;55.998;37.212;2024-02-04T09:43:24;43951.41;;;-145.39;64.63
37078;BME280;22989;55.998;37.212;2024-02-04T09:45:49;43910.41;;;-145.39;64.72
37078;BME280;22989;55.998;37.212;2024-02-04T09:48:17;43892.81;;;-145.39;64.74
37078;BME280;22989;55.998;37.212;2024-02-04T09:50:45;43855.72;;;-145.39;64.57
37078;BME280;22989;55.998;37.212;2024-02-04T09:53:14;43890.88;;;-145.39;64.65
37078;BME280;22989;55.998;37.212;2024-02-04T09:55:40;43910.41;;;-145.39;64.46
37078;BME280;22989;55.998;37.212;2024-02-04T09:58:07;43974.84;;;-145.39;64.43
37078;BME280;22989;55.998;37.212;2024-02-04T10:00:33;43885.00;;;-145.39;64.38
37078;BME280;22989;55.998;37.212;2024-02-04T10:02:59;43986.56;;;-145.39;64.48
37078;BME280;22989;55.998;37.212;2024-02-04T10:05:26;43947.50;;;-145.39;64.36
37078;BME280;22989;55.998;37.212;2024-02-04T10:07:51;43937.75;;;-145.39;64.29
37078;BME280;22989;55.998;37.212;2024-02-04T10:10:17;43918.22;;;-145.39;64.28
37078;BME280;22989;55.998;37.212;2024-02-04T10:12:43;43933.84;;;-145.39;64.12
37078;BME280;22989;55.998;37.212;2024-02-04T10:15:09;43967.03;;;-145.39;64.12
37078;BME280;22989;55.998;37.212;2024-02-04T10:17:36;43994.38;;;-145.39;64.07
37078;BME280;22989;55.998;37.212;2024-02-04T10:20:01;43996.34;;;-145.39;64.14
37078;BME280;22989;55.998;37.212;2024-02-04T10:22:28;43951.41;;;-145.39;64.03
37078;BME280;22989;55.998;37.212;2024-02-04T10:24:54;43939.69;;;-145.39;63.94
37078;BME280;22989;55.998;37.212;2024-02-04T10:27:31;43892.81;;;-145.39;63.82
37078;BME280;22989;55.998;37.212;2024-02-04T10:29:56;43902.59;;;-145.39;63.86
37078;BME280;22989;55.998;37.212;2024-02-04T10:32:22;43844.00;;;-145.39;63.75
37078;BME280;22989;55.998;37.212;2024-02-04T10:34:48;43861.56;;;-145.39;63.72
37078;BME280;22989;55.998;37.212;2024-02-04T10:37:13;43814.69;;;-145.39;63.69
37078;BME280;22989;55.998;37.212;2024-02-04T10:39:39;43900.63;;;-145.39;63.57
37078;BME280;22989;55.998;37.212;2024-02-04T10:42:04;43916.25;;;-145.39;63.54
37078;BME280;22989;55.998;37.212;2024-02-04T10:44:35;43890.88;;;-145.39;63.64
37078;BME280;22989;55.998;37.212;2024-02-04T10:47:05;43937.75;;;-145.39;63.58
37078;BME280;22989;55.998;37.212;2024-02-04T10:49:37;43881.09;;;-145.39;63.45
37078;BME280;22989;55.998;37.212;2024-02-04T10:52:06;43914.31;;;-145.39;63.54
37078;BME280;22989;55.998;37.212;2024-02-04T10:54:34;43871.34;;;-145.39;63.01
37078;BME280;22989;55.998;37.212;2024-02-04T10:57:05;43855.72;;;-145.39;63.10
37078;BME280;22989;55.998;37.212;2024-02-04T10:59:34;43890.88;;;-145.39;63.11
37078;BME280;22989;55.998;37.212;2024-02-04T11:02:00;43969.00;;;-145.39;63.08
37078;BME280;22989;55.998;37.212;2024-02-04T11:04:26;43947.50;;;-145.39;62.82
37078;BME280;22989;55.998;37.212;2024-02-04T11:06:53;43967.03;;;-145.39;62.77
37078;BME280;22989;55.998;37.212;2024-02-04T11:09:19;44008.06;;;-145.39;62.86
37078;BME280;22989;55.998;37.212;2024-02-04T11:11:45;43994.38;;;-145.39;62.75
37078;BME280;22989;55.998;37.212;2024-02-04T11:14:13;44019.78;;;-145.39;62.74
37078;BME280;22989;55.998;37.212;2024-02-04T11:27:33;43881.09;;;-145.39;61.59
37078;BME280;22989;55.998;37.212;2024-02-04T11:29:59;43902.59;;;-145.39;61.10
37078;BME280;22989;55.998;37.212;2024-02-04T11:32:24;43920.16;;;-145.39;61.05
37078;BME280;22989;55.998;37.212;2024-02-04T11:34:53;43947.50;;;-145.39;60.76
37078;BME280;22989;55.998;37.212;2024-02-04T11:37:20;43914.31;;;-145.39;60.74
37078;BME280;22989;55.998;37.212;2024-02-04T11:39:50;43885.00;;;-145.39;60.63
37078;BME280;22989;55.998;37.212;2024-02-04T11:42:16;43845.94;;;-145.39;60.50
37078;BME280;22989;55.998;37.212;2024-02-04T11:44:43;43802.97;;;-145.39;60.28
37078;BME280;22989;55.998;37.212;2024-02-04T11:47:09;43738.50;;;-145.39;60.15
37078;BME280;22989;55.998;37.212;2024-02-04T11:49:35;43756.09;;;-145.39;60.15
37078;BME280;22989;55.998;37.212;2024-02-04T11:52:00;43664.28;;;-145.39;60.06
37078;BME280;22989;55.998;37.212;2024-02-04T11:54:26;43717.03;;;-145.39;60.09
37078;BME280;22989;55.998;37.212;2024-02-04T11:56:52;43752.19;;;-145.39;59.99
37078;BME280;22989;55.998;37.212;2024-02-04T11:59:22;43783.44;;;-145.39;60.05
37078;BME280;22989;55.998;37.212;2024-02-04T12:01:57;43808.84;;;-145.39;60.18
37078;BME280;22989;55.998;37.212;2024-02-04T12:04:23;43826.41;;;-145.39;60.07
37078;BME280;22989;55.998;37.212;2024-02-04T12:06:49;43844.00;;;-145.39;59.89
37078;BME280;22989;55.998;37.212;2024-02-04T12:09:19;43849.84;;;-145.39;59.33
37078;BME280;22989;55.998;37.212;2024-02-04T12:11:45;43949.47;;;-145.39;59.57
37078;BME280;22989;55.998;37.212;2024-02-04T12:14:11;43836.19;;;-145.39;59.79
37078;BME280;22989;55.998;37.212;2024-02-04T12:16:38;43881.09;;;-145.39;59.54
37078;BME280;22989;55.998;37.212;2024-02-04T12:19:05;43912.34;;;-145.39;59.16
37078;BME280;22989;55.998;37.212;2024-02-04T12:21:31;43818.59;;;-145.39;59.30
37078;BME280;22989;55.998;37.212;2024-02-04T12:23:58;43744.38;;;-145.39;59.48
37078;BME280;22989;55.998;37.212;2024-02-04T12:26:25;43597.88;;;-145.39;59.30
37078;BME280;22989;55.998;37.212;2024-02-04T12:28:51;43465.06;;;-145.39;59.16
37078;BME280;22989;55.998;37.212;2024-02-04T12:31:18;43435.78;;;-145.39;59.08
37078;BME280;22989;55.998;37.212;2024-02-04T12:33:55;43271.72;;;-145.39;59.06
37078;BME280;22989;55.998;37.212;2024-02-04T12:36:30;43236.56;;;-145.39;59.32
37078;BME280;22989;55.998;37.212;2024-02-04T12:38:57;43138.94;;;-145.39;59.22
37078;BME280;22989;55.998;37.212;2024-02-04T12:41:24;43058.88;;;-145.39;59.43